createdAt,value
2022-10-22T00:01:10.877Z,25.10
2022-10-22T00:03:38.966Z,22.42
2022-10-22T00:06:07.561Z,21.98
2022-10-22T00:08:37.076Z,23.45
2022-10-22T00:11:13.471Z,22.80
2022-10-22T00:13:41.766Z,27.52
2022-10-22T00:16:10.070Z,28.35
2022-10-22T00:18:38.255Z,29.20
2022-10-22T00:21:07.167Z,23.60
2022-10-22T00:23:36.746Z,26.10
2022-10-22T00:26:04.842Z,21.23
2022-10-22T00:28:32.846Z,22.52
2022-10-22T00:31:01.761Z,21.17
2022-10-22T00:33:30.281Z,24.10
2022-10-22T00:35:58.439Z,22.88
2022-10-22T00:38:26.591Z,25.67
2022-10-22T00:40:56.657Z,20.10
2022-10-22T00:43:24.778Z,17.42
2022-10-22T00:45:52.873Z,18.25
2022-10-22T00:48:26.849Z,21.15
2022-10-22T00:50:57.931Z,15.77
2022-10-22T00:53:30.114Z,18.65
2022-10-22T00:56:00.037Z,15.40
2022-10-22T00:58:32.352Z,18.25
2022-10-22T01:01:00.622Z,16.42
2022-10-22T01:03:29.269Z,18.45
2022-10-22T01:05:59.368Z,18.35
2022-10-22T01:08:35.829Z,20.17
2022-10-22T01:11:14.473Z,16.73
2022-10-22T01:13:53.850Z,12.75
2022-10-22T01:16:30.142Z,16.73
2022-10-22T01:19:10.095Z,16.75
2022-10-22T01:21:43.724Z,13.63
2022-10-22T01:24:35.318Z,19.25
2022-10-22T01:27:22.198Z,14.82
2022-10-22T01:29:54.431Z,17.67
2022-10-22T01:32:24.818Z,13.00
2022-10-22T01:34:57.411Z,18.60
2022-10-22T01:37:29.410Z,17.15
2022-10-22T01:39:59.097Z,12.80
2022-10-22T01:42:27.423Z,17.02
2022-10-22T01:44:56.826Z,14.45
2022-10-22T01:47:40.491Z,14.13
2022-10-22T01:50:48.846Z,19.92
2022-10-22T01:53:26.726Z,14.60
2022-10-22T01:56:08.883Z,14.38
2022-10-22T01:58:44.434Z,15.23
2022-10-22T02:01:20.492Z,15.57
2022-10-22T02:03:57.154Z,14.73
2022-10-22T02:06:27.385Z,13.05
2022-10-22T02:08:57.077Z,15.25
2022-10-22T02:11:25.220Z,14.82
2022-10-22T02:13:57.502Z,12.15
2022-10-22T02:16:31.710Z,13.82
2022-10-22T02:19:02.984Z,14.32
2022-10-22T02:21:32.214Z,12.43
2022-10-22T02:24:00.411Z,14.63
2022-10-22T02:26:33.891Z,12.60
2022-10-22T02:29:08.099Z,14.02
2022-10-22T02:31:41.100Z,11.07
2022-10-22T02:34:14.090Z,11.85
2022-10-22T02:36:48.061Z,12.65
2022-10-22T02:39:20.249Z,12.07
2022-10-22T02:41:49.280Z,15.23
2022-10-22T02:44:17.333Z,13.85
2022-10-22T02:46:46.779Z,14.35
2022-10-22T02:49:14.908Z,11.70
2022-10-22T02:51:43.177Z,15.27
2022-10-22T02:54:11.322Z,12.77
2022-10-22T02:56:39.364Z,16.88
2022-10-22T02:59:07.451Z,14.52
2022-10-22T03:01:35.799Z,12.57
2022-10-22T03:04:05.876Z,12.38
2022-10-22T03:06:33.888Z,11.75
2022-10-22T03:09:02.007Z,12.73
2022-10-22T03:11:30.300Z,13.23
2022-10-22T03:13:58.496Z,10.80
2022-10-22T03:16:26.628Z,14.75
2022-10-22T03:18:54.957Z,11.77
2022-10-22T03:21:30.961Z,12.48
2022-10-22T03:24:00.756Z,12.55
2022-10-22T03:26:28.914Z,11.70
2022-10-22T03:28:57.270Z,11.55
2022-10-22T03:31:25.391Z,14.98
2022-10-22T03:33:53.671Z,13.15
2022-10-22T03:36:21.762Z,13.93
2022-10-22T03:38:51.240Z,14.80
2022-10-22T03:41:19.287Z,15.60
2022-10-22T03:43:51.463Z,12.05
2022-10-22T03:46:19.598Z,11.80
2022-10-22T03:48:48.193Z,11.82
2022-10-22T03:51:16.400Z,14.68
2022-10-22T03:53:44.355Z,14.77
2022-10-22T03:56:15.026Z,14.88
2022-10-22T03:58:43.116Z,12.18
2022-10-22T04:01:12.868Z,12.25
2022-10-22T04:03:41.744Z,11.75
2022-10-22T04:06:11.863Z,14.50
2022-10-22T04:08:41.107Z,14.70
2022-10-22T04:11:09.740Z,12.55
2022-10-22T04:13:39.249Z,11.00
2022-10-22T04:16:11.570Z,12.77
2022-10-22T04:18:40.819Z,13.95
2022-10-22T04:21:10.621Z,15.88
2022-10-22T04:23:39.650Z,11.25
2022-10-22T04:26:09.094Z,15.10
2022-10-22T04:28:38.704Z,10.55
2022-10-22T04:31:10.004Z,11.02
2022-10-22T04:33:38.676Z,13.63
2022-10-22T04:36:11.795Z,16.42
2022-10-22T04:38:39.859Z,12.30
2022-10-22T04:41:13.227Z,11.60
2022-10-22T04:43:42.997Z,11.32
2022-10-22T04:46:12.521Z,11.07
2022-10-22T04:48:43.122Z,13.70
2022-10-22T04:51:13.832Z,13.98
2022-10-22T04:53:42.097Z,13.25
2022-10-22T04:56:12.192Z,13.05
2022-10-22T04:58:42.209Z,14.98
2022-10-22T05:01:12.057Z,16.33
2022-10-22T05:03:40.371Z,14.55
2022-10-22T05:06:09.092Z,16.38
2022-10-22T05:08:37.469Z,14.45
2022-10-22T05:11:12.589Z,15.77
2022-10-22T05:13:42.164Z,18.70
2022-10-22T05:16:10.256Z,16.27
2022-10-22T05:18:38.902Z,19.40
2022-10-22T05:21:10.654Z,19.98
2022-10-22T05:23:38.716Z,22.00
2022-10-22T05:26:07.853Z,16.67
2022-10-22T05:28:36.721Z,19.65
2022-10-22T05:31:07.382Z,15.35
2022-10-22T05:33:36.058Z,16.10
2022-10-22T05:36:06.142Z,24.60
2022-10-22T05:38:34.705Z,20.13
2022-10-22T05:41:04.158Z,22.70
2022-10-22T05:43:32.247Z,21.08
2022-10-22T05:46:04.065Z,26.92
2022-10-22T05:48:33.643Z,25.38
2022-10-22T05:51:05.686Z,23.33
2022-10-22T05:53:34.998Z,23.55
2022-10-22T05:56:03.865Z,22.85
2022-10-22T05:58:32.007Z,24.00
2022-10-22T06:01:04.001Z,23.35
2022-10-22T06:03:33.498Z,27.27
2022-10-22T06:06:02.994Z,22.63
2022-10-22T06:08:31.745Z,24.92
2022-10-22T06:10:59.913Z,21.02
2022-10-22T06:13:27.934Z,27.42
2022-10-22T06:15:56.136Z,21.17
2022-10-22T06:18:24.088Z,22.58
2022-10-22T06:20:53.582Z,21.63
2022-10-22T06:23:21.615Z,23.60
2022-10-22T06:25:57.888Z,24.95
2022-10-22T06:28:26.024Z,22.35
2022-10-22T06:30:54.170Z,24.70
2022-10-22T06:33:22.232Z,26.60
2022-10-22T06:35:50.221Z,22.40
2022-10-22T06:38:20.014Z,20.50
2022-10-22T06:40:48.605Z,23.75
2022-10-22T06:43:16.795Z,18.17
2022-10-22T06:45:44.780Z,19.48
2022-10-22T06:48:12.892Z,16.70
2022-10-22T06:50:41.734Z,17.05
2022-10-22T06:53:10.337Z,13.98
2022-10-22T06:55:39.912Z,17.08
2022-10-22T06:58:08.175Z,13.07
2022-10-22T07:00:36.218Z,15.10
2022-10-22T07:03:04.477Z,13.05
2022-10-22T07:05:35.095Z,12.70
2022-10-22T07:08:03.111Z,9.95
2022-10-22T07:10:31.403Z,12.38
2022-10-22T07:13:01.030Z,13.05
2022-10-22T07:15:29.091Z,9.55
2022-10-22T07:17:57.053Z,10.07
2022-10-22T07:20:25.183Z,8.98
2022-10-22T07:22:53.164Z,8.05
2022-10-22T07:25:21.129Z,11.88
2022-10-22T07:27:49.197Z,8.23
2022-10-22T07:30:18.697Z,7.47
2022-10-22T07:32:46.746Z,8.65
2022-10-22T07:35:15.061Z,8.38
2022-10-22T07:37:43.557Z,7.53
2022-10-22T07:40:12.354Z,6.93
2022-10-22T07:42:40.491Z,6.55
2022-10-22T07:45:09.909Z,8.27
2022-10-22T07:47:39.648Z,8.98
2022-10-22T07:50:08.756Z,6.57
2022-10-22T07:52:37.105Z,6.72
2022-10-22T07:55:06.001Z,7.60
2022-10-22T07:57:34.084Z,7.30
2022-10-22T08:00:02.325Z,9.55
2022-10-22T08:02:41.326Z,6.90
2022-10-22T08:05:10.293Z,8.07
2022-10-22T08:07:38.593Z,6.38
2022-10-22T08:10:07.970Z,7.32
2022-10-22T08:12:35.973Z,8.25
2022-10-22T08:15:04.818Z,7.90
2022-10-22T08:17:32.812Z,7.18
2022-10-22T08:20:02.380Z,8.27
2022-10-22T08:22:30.390Z,7.57
2022-10-22T08:24:59.152Z,5.80
2022-10-22T08:27:27.277Z,9.05
2022-10-22T08:29:55.330Z,4.53
2022-10-22T08:32:23.402Z,7.78
2022-10-22T08:34:51.549Z,5.68
2022-10-22T08:37:21.323Z,5.72
2022-10-22T08:39:49.610Z,3.95
2022-10-22T08:42:46.341Z,3.55
2022-10-22T08:48:00.811Z,3.05
2022-10-22T08:50:34.886Z,2.83
2022-10-22T08:53:09.001Z,4.53
2022-10-22T08:55:38.379Z,2.80
2022-10-22T08:58:20.321Z,3.53
2022-10-22T09:00:56.073Z,4.82
2022-10-22T09:06:05.661Z,1.83
2022-10-22T09:08:37.445Z,2.13
2022-10-22T09:11:15.366Z,1.70
2022-10-22T09:13:46.434Z,1.00
2022-10-22T09:16:21.798Z,3.15
2022-10-22T09:19:04.017Z,1.77
2022-10-22T09:21:41.862Z,1.80
2022-10-22T09:24:17.469Z,2.63
2022-10-22T09:26:45.563Z,1.83
2022-10-22T09:29:19.020Z,2.83
2022-10-22T09:31:47.707Z,3.70
2022-10-22T09:34:16.735Z,1.65
2022-10-22T09:36:44.790Z,2.45
2022-10-22T09:39:29.071Z,1.80
2022-10-22T09:41:57.159Z,2.80
2022-10-22T09:44:25.674Z,2.65
2022-10-22T09:46:54.033Z,2.78
2022-10-22T09:49:24.843Z,3.53
2022-10-22T09:51:55.779Z,1.80
2022-10-22T09:54:27.847Z,5.18
2022-10-22T09:56:58.625Z,4.32
2022-10-22T09:59:30.461Z,3.55
2022-10-22T10:02:13.434Z,4.90
2022-10-22T10:04:51.180Z,2.40
2022-10-22T10:07:21.174Z,4.53
2022-10-22T10:09:51.507Z,2.72
2022-10-22T10:12:34.871Z,1.98
2022-10-22T10:15:14.798Z,2.33
2022-10-22T10:17:50.992Z,4.45
2022-10-22T10:20:30.873Z,2.47
2022-10-22T10:23:04.874Z,2.60
2022-10-22T10:25:42.189Z,2.42
2022-10-22T10:28:30.148Z,2.35
2022-10-22T10:31:07.950Z,2.92
2022-10-22T10:33:45.836Z,2.75
2022-10-22T10:36:20.337Z,3.33
2022-10-22T10:38:59.838Z,3.17
2022-10-22T10:41:40.158Z,1.63
2022-10-22T10:44:35.214Z,2.63
2022-10-22T10:47:17.717Z,2.28
2022-10-22T10:49:46.100Z,3.58
2022-10-22T10:52:23.077Z,4.03
2022-10-22T10:55:00.761Z,3.05
2022-10-22T10:57:41.087Z,4.10
2022-10-22T11:00:12.781Z,3.85
2022-10-22T11:03:10.645Z,3.22
2022-10-22T11:05:44.974Z,3.45
2022-10-22T11:08:20.160Z,5.45
2022-10-22T11:10:51.612Z,3.60
2022-10-22T11:13:28.258Z,4.47
2022-10-22T11:16:02.312Z,4.15
2022-10-22T11:18:34.980Z,3.88
2022-10-22T11:21:14.405Z,3.88
2022-10-22T11:23:47.223Z,4.60
2022-10-22T11:26:26.934Z,3.20
2022-10-22T11:28:59.711Z,3.30
2022-10-22T11:31:29.757Z,3.75
2022-10-22T11:34:28.384Z,2.42
2022-10-22T11:36:55.525Z,2.55
2022-10-22T11:39:41.696Z,3.10
2022-10-22T11:42:12.667Z,1.98
2022-10-22T11:47:27.241Z,2.45
2022-10-22T11:50:03.694Z,6.15
2022-10-22T11:52:49.037Z,1.92
2022-10-22T11:55:45.901Z,1.70
2022-10-22T11:58:43.865Z,4.95
2022-10-22T12:01:43.514Z,2.45
2022-10-22T12:04:23.499Z,3.22
2022-10-22T12:06:58.596Z,1.63
2022-10-22T12:09:30.359Z,2.42
2022-10-22T12:12:05.851Z,3.83
2022-10-22T12:14:41.703Z,5.65
2022-10-22T12:19:43.225Z,2.40
2022-10-22T12:22:16.405Z,4.30
2022-10-22T12:24:46.751Z,6.63
2022-10-22T12:27:23.314Z,3.08
2022-10-22T12:29:56.712Z,4.13
2022-10-22T12:32:34.988Z,1.85
2022-10-22T12:35:07.653Z,3.78
2022-10-22T12:37:37.026Z,4.10
2022-10-22T12:40:18.148Z,3.00
2022-10-22T12:42:49.634Z,3.22
2022-10-22T12:45:18.007Z,2.70
2022-10-22T12:47:53.582Z,1.20
2022-10-22T12:50:26.122Z,3.13
2022-10-22T12:52:56.183Z,3.92
2022-10-22T12:55:27.196Z,1.48
2022-10-22T12:57:55.454Z,2.83
2022-10-22T13:00:26.546Z,2.75
2022-10-22T13:02:58.716Z,1.95
2022-10-22T13:05:28.533Z,1.80
2022-10-22T13:08:04.297Z,3.20
2022-10-22T13:13:03.338Z,3.17
2022-10-22T13:15:39.298Z,0.85
2022-10-22T13:18:18.120Z,6.10
2022-10-22T13:20:57.687Z,6.15
2022-10-22T13:23:28.328Z,1.63
2022-10-22T13:26:02.153Z,2.63
2022-10-22T13:28:31.771Z,7.15
2022-10-22T13:31:01.810Z,2.22
2022-10-22T13:33:35.925Z,1.98
2022-10-22T13:36:04.542Z,2.28
2022-10-22T13:38:32.908Z,3.80
2022-10-22T13:41:03.274Z,2.33
2022-10-22T13:43:31.305Z,6.68
2022-10-22T13:46:00.809Z,2.95
2022-10-22T13:48:30.902Z,1.40
2022-10-22T13:51:00.716Z,3.35
2022-10-22T13:53:30.325Z,2.53
2022-10-22T13:55:59.055Z,2.47
2022-10-22T13:58:27.269Z,3.10
2022-10-22T14:00:58.020Z,5.18
2022-10-22T14:03:29.486Z,5.10
2022-10-22T14:05:58.212Z,5.90
2022-10-22T14:08:30.395Z,2.40
2022-10-22T14:10:58.905Z,5.53
2022-10-22T14:13:27.372Z,4.22
2022-10-22T14:15:55.637Z,5.78
2022-10-22T14:18:28.685Z,5.45
2022-10-22T14:20:59.968Z,3.20
2022-10-22T14:23:32.543Z,3.40
2022-10-22T14:26:01.647Z,9.00
2022-10-22T14:28:34.215Z,4.22
2022-10-22T14:31:12.117Z,8.10
2022-10-22T14:33:41.485Z,2.85
2022-10-22T14:36:12.565Z,3.45
2022-10-22T14:38:42.240Z,4.18
2022-10-22T14:41:18.583Z,6.82
2022-10-22T14:43:46.999Z,3.17
2022-10-22T14:46:16.671Z,4.82
2022-10-22T14:48:45.231Z,5.32
2022-10-22T14:51:15.527Z,10.45
2022-10-22T14:53:46.084Z,5.22
2022-10-22T14:56:16.482Z,5.82
2022-10-22T14:58:45.646Z,3.60
2022-10-22T15:01:14.230Z,3.88
2022-10-22T15:03:42.340Z,4.30
2022-10-22T15:06:10.412Z,6.88
2022-10-22T15:08:39.475Z,8.15
2022-10-22T15:11:12.595Z,5.18
2022-10-22T15:13:41.510Z,4.63
2022-10-22T15:16:11.563Z,5.63
2022-10-22T15:18:39.666Z,4.45
2022-10-22T15:21:10.215Z,4.75
2022-10-22T15:23:39.338Z,11.52
2022-10-22T15:26:10.467Z,7.20
2022-10-22T15:28:39.451Z,9.02
2022-10-22T15:31:08.673Z,8.52
2022-10-22T15:33:36.796Z,6.32
2022-10-22T15:36:12.550Z,4.28
2022-10-22T15:41:13.629Z,5.10
2022-10-22T15:43:42.112Z,6.38
2022-10-22T15:46:13.142Z,7.60
2022-10-22T15:48:41.592Z,7.35
2022-10-22T15:51:11.650Z,5.63
2022-10-22T15:53:40.012Z,5.32
2022-10-22T15:56:08.652Z,4.55
2022-10-22T15:58:38.232Z,6.88
2022-10-22T16:01:07.464Z,6.28
2022-10-22T16:03:36.083Z,8.23
2022-10-22T16:06:05.593Z,7.32
2022-10-22T16:08:34.249Z,6.90
2022-10-22T16:11:02.431Z,4.68
2022-10-22T16:13:31.045Z,5.18
2022-10-22T16:16:00.430Z,7.30
2022-10-22T16:18:28.498Z,8.07
2022-10-22T16:20:56.804Z,8.80
2022-10-22T16:23:25.054Z,6.65
2022-10-22T16:25:53.147Z,6.90
2022-10-22T16:28:21.301Z,8.15
2022-10-22T16:30:49.541Z,11.38
2022-10-22T16:33:19.158Z,7.22
2022-10-22T16:35:49.348Z,6.03
2022-10-22T16:38:18.986Z,5.95
2022-10-22T16:40:47.352Z,11.27
2022-10-22T16:43:15.561Z,8.93
2022-10-22T16:45:49.141Z,5.97
2022-10-22T16:48:19.574Z,9.75
2022-10-22T16:50:47.582Z,6.90
2022-10-22T16:53:15.637Z,7.90
2022-10-22T16:55:43.788Z,5.85
2022-10-22T16:58:11.977Z,6.65
2022-10-22T17:00:40.019Z,6.28
2022-10-22T17:03:08.175Z,8.15
2022-10-22T17:05:38.152Z,6.47
2022-10-22T17:08:06.590Z,6.35
2022-10-22T17:10:36.652Z,10.13
2022-10-22T17:13:05.456Z,11.32
2022-10-22T17:15:33.785Z,16.95
2022-10-22T17:18:04.043Z,8.73
2022-10-22T17:20:32.090Z,10.93
2022-10-22T17:23:01.500Z,9.43
2022-10-22T17:25:37.995Z,7.15
2022-10-22T17:28:07.451Z,7.32
2022-10-22T17:30:38.873Z,11.90
2022-10-22T17:33:07.150Z,8.32
2022-10-22T17:35:35.477Z,6.72
2022-10-22T17:38:06.436Z,12.65
2022-10-22T17:40:37.862Z,13.52
2022-10-22T17:43:06.093Z,8.80
2022-10-22T17:45:34.176Z,11.13
2022-10-22T17:48:02.933Z,8.48
2022-10-22T17:50:30.959Z,9.70
2022-10-22T17:52:59.036Z,8.73
2022-10-22T17:55:29.378Z,12.23
2022-10-22T17:57:57.620Z,8.75
2022-10-22T18:00:25.789Z,11.90
2022-10-22T18:02:54.039Z,11.38
2022-10-22T18:05:22.271Z,8.32
2022-10-22T18:07:50.458Z,9.35
2022-10-22T18:11:21.052Z,13.75
2022-10-22T18:13:52.181Z,10.63
2022-10-22T18:16:20.797Z,11.88
2022-10-22T18:18:50.130Z,9.18
2022-10-22T18:21:18.936Z,8.90
2022-10-22T18:23:47.657Z,8.43
2022-10-22T18:26:17.958Z,10.20
2022-10-22T18:28:48.719Z,7.78
2022-10-22T18:31:20.392Z,9.40
2022-10-22T18:33:49.550Z,14.20
2022-10-22T18:36:20.112Z,10.25
2022-10-22T18:38:51.472Z,7.57
2022-10-22T18:41:20.073Z,7.40
2022-10-22T18:43:51.839Z,7.38
2022-10-22T18:46:22.218Z,7.47
2022-10-22T18:48:50.579Z,7.32
2022-10-22T18:51:18.749Z,6.43
2022-10-22T18:53:59.068Z,9.40
2022-10-22T18:56:33.619Z,9.70
2022-10-22T18:59:01.674Z,9.15
2022-10-22T19:01:31.403Z,8.15
2022-10-22T19:03:59.712Z,7.50
2022-10-22T19:06:30.559Z,9.48
2022-10-22T19:09:02.374Z,13.18
2022-10-22T19:11:30.474Z,9.65
2022-10-22T19:13:59.028Z,7.32
2022-10-22T19:16:28.516Z,6.88
2022-10-22T19:19:03.264Z,7.90
2022-10-22T19:21:31.835Z,9.45
2022-10-22T19:24:01.579Z,9.32
2022-10-22T19:26:31.281Z,7.85
2022-10-22T19:29:00.595Z,13.60
2022-10-22T19:31:31.489Z,10.82
2022-10-22T19:34:02.192Z,7.10
2022-10-22T19:36:32.584Z,8.10
2022-10-22T19:39:01.849Z,10.25
2022-10-22T19:41:32.319Z,6.13
2022-10-22T19:44:01.271Z,7.22
2022-10-22T19:46:32.563Z,8.77
2022-10-22T19:49:03.930Z,8.82
2022-10-22T19:51:34.329Z,6.70
2022-10-22T19:54:04.233Z,10.55
2022-10-22T19:56:33.606Z,8.13
2022-10-22T19:59:01.736Z,7.82
2022-10-22T20:01:32.062Z,11.50
2022-10-22T20:04:01.888Z,6.00
2022-10-22T20:06:30.676Z,7.00
2022-10-22T20:08:58.808Z,5.55
2022-10-22T20:11:29.078Z,8.02
2022-10-22T20:13:58.249Z,6.00
2022-10-22T20:16:28.643Z,8.40
2022-10-22T20:19:02.216Z,6.78
2022-10-22T20:21:30.901Z,7.88
2022-10-22T20:23:59.222Z,9.93
2022-10-22T20:26:28.991Z,5.05
2022-10-22T20:28:57.761Z,8.48
2022-10-22T20:31:28.751Z,5.57
2022-10-22T20:33:58.781Z,7.60
2022-10-22T20:36:29.989Z,8.93
2022-10-22T20:39:01.358Z,17.33
2022-10-22T20:41:30.128Z,24.25
2022-10-22T20:43:58.490Z,25.70
2022-10-22T20:46:29.189Z,23.75
2022-10-22T20:49:00.659Z,19.30
2022-10-22T20:51:30.234Z,19.27
2022-10-22T20:53:58.400Z,16.33
2022-10-22T20:56:26.802Z,17.30
2022-10-22T20:59:04.309Z,17.45
2022-10-22T21:01:34.555Z,13.75
2022-10-22T21:04:02.983Z,14.43
2022-10-22T21:06:32.402Z,13.15
2022-10-22T21:09:00.599Z,14.68
2022-10-22T21:11:28.679Z,14.23
2022-10-22T21:13:56.756Z,15.07
2022-10-22T21:16:25.006Z,17.58
2022-10-22T21:18:52.972Z,22.50
2022-10-22T21:21:21.044Z,42.40
2022-10-22T21:23:51.386Z,79.13
2022-10-22T21:26:20.288Z,82.47
2022-10-22T21:28:49.077Z,78.07
2022-10-22T21:31:21.969Z,51.42
2022-10-22T21:33:51.083Z,33.38
2022-10-22T21:36:22.736Z,27.40
2022-10-22T21:38:53.158Z,22.58
2022-10-22T21:41:23.437Z,18.23
2022-10-22T21:43:51.947Z,14.68
2022-10-22T21:46:21.605Z,15.50
2022-10-22T21:48:54.025Z,12.65
2022-10-22T21:51:22.757Z,14.15
2022-10-22T21:56:27.562Z,10.52
2022-10-22T21:58:56.120Z,19.13
2022-10-22T22:01:24.336Z,8.55
2022-10-22T22:03:52.900Z,7.72
2022-10-22T22:06:22.816Z,8.98
2022-10-22T22:08:53.544Z,6.05
2022-10-22T22:11:24.217Z,8.23
2022-10-22T22:13:52.960Z,7.43
2022-10-22T22:16:27.112Z,12.13
2022-10-22T22:18:57.502Z,7.65
2022-10-22T22:21:26.013Z,8.32
2022-10-22T22:23:55.606Z,7.78
2022-10-22T22:26:28.635Z,11.65
2022-10-22T22:28:58.421Z,10.23
2022-10-22T22:31:29.009Z,8.70
2022-10-22T22:34:00.305Z,10.15
2022-10-22T22:36:28.647Z,9.63
2022-10-22T22:38:58.528Z,7.45
2022-10-22T22:41:26.694Z,7.70
2022-10-22T22:46:27.905Z,12.25
2022-10-22T22:48:56.183Z,10.05
2022-10-22T22:51:24.606Z,10.18
2022-10-22T22:53:53.060Z,11.18
2022-10-22T22:56:24.461Z,10.10
2022-10-22T22:58:53.063Z,9.68
2022-10-22T23:01:29.338Z,9.60
2022-10-22T23:03:58.887Z,9.27
2022-10-22T23:06:27.712Z,9.40
2022-10-22T23:08:57.246Z,9.07
2022-10-22T23:11:27.979Z,9.32
2022-10-22T23:13:58.334Z,14.05
2022-10-22T23:16:27.986Z,11.18
2022-10-22T23:18:57.083Z,12.57
2022-10-22T23:21:27.534Z,10.48
2022-10-22T23:23:57.751Z,14.93
2022-10-22T23:26:30.311Z,7.40
2022-10-22T23:29:01.914Z,14.48
2022-10-22T23:31:30.289Z,11.98
2022-10-22T23:33:58.628Z,8.07
2022-10-22T23:36:27.163Z,5.65
2022-10-22T23:38:55.803Z,11.90
2022-10-22T23:41:24.027Z,7.63
2022-10-22T23:43:53.458Z,8.18
2022-10-22T23:46:21.542Z,5.40
2022-10-22T23:48:49.813Z,6.50
2022-10-22T23:51:18.824Z,6.88
2022-10-22T23:53:47.946Z,8.50
2022-10-22T23:56:17.928Z,8.13
2022-10-22T23:58:46.382Z,6.35
